Time;durP1;ratioP1;P1;durP2;ratioP2;P2;SDS_P1;SDS_P2;PMS_P1;PMS_P2;Temp;Humidity;BMP_temperature;BMP_pressure;BME280_temperature;BME280_humidity;BME280_pressure;Samples;Min_cycle;Max_cycle;Signal;HPM_P1;HPM_P2
2023/06/16 00:01:17;;;;;;;3.55;3.25;;;17.70;44.90;;;;;;5054539;28;20170;-71
2023/06/16 00:03:45;;;;;;;3.65;3.33;;;17.70;44.90;;;;;;5054637;28;20460;-74
2023/06/16 00:06:13;;;;;;;3.53;3.22;;;17.70;45.00;;;;;;5036604;28;20025;-76
2023/06/16 00:08:54;;;;;;;4.30;3.75;;;17.70;44.90;;;;;;5054190;28;20095;-71
2023/06/16 00:11:20;;;;;;;4.90;3.40;;;17.70;44.90;;;;;;5036503;28;20040;-75
2023/06/16 00:13:47;;;;;;;8.70;3.60;;;17.70;44.70;;;;;;5054281;28;20031;-72
2023/06/16 00:16:13;;;;;;;3.42;3.13;;;17.70;45.00;;;;;;5054190;28;20025;-71
2023/06/16 00:18:43;;;;;;;5.85;3.40;;;17.70;44.80;;;;;;5054123;28;20182;-71
2023/06/16 00:21:09;;;;;;;3.95;3.55;;;17.60;44.80;;;;;;5054124;28;20039;-71
2023/06/16 00:23:35;;;;;;;4.13;3.72;;;17.50;45.10;;;;;;5054014;28;20069;-71
2023/06/16 00:26:01;;;;;;;3.58;3.28;;;17.50;45.60;;;;;;5054018;28;20024;-69
2023/06/16 00:28:27;;;;;;;5.45;3.63;;;17.40;45.60;;;;;;5036050;28;20108;-70
2023/06/16 00:30:52;;;;;;;4.30;3.58;;;17.40;45.50;;;;;;5053662;28;20485;-69
2023/06/16 00:33:18;;;;;;;5.03;3.78;;;17.30;45.80;;;;;;5053718;28;20029;-69
2023/06/16 00:35:44;;;;;;;4.45;3.88;;;17.30;45.70;;;;;;5053988;28;20066;-72
2023/06/16 00:38:10;;;;;;;4.53;3.50;;;17.20;45.80;;;;;;5053903;28;20032;-70
2023/06/16 00:40:36;;;;;;;4.15;3.55;;;17.20;45.80;;;;;;5053755;28;20025;-72
2023/06/16 00:43:02;;;;;;;3.85;3.38;;;17.10;46.10;;;;;;5053769;28;20481;-72
2023/06/16 00:45:29;;;;;;;3.92;3.63;;;16.90;46.10;;;;;;5054037;28;20021;-71
2023/06/16 00:47:55;;;;;;;5.97;3.60;;;16.80;46.40;;;;;;5035739;28;20163;-71
2023/06/16 00:50:23;;;;;;;5.68;3.90;;;16.70;47.20;;;;;;5053158;28;20407;-71
2023/06/16 00:52:49;;;;;;;4.20;3.45;;;16.70;47.20;;;;;;5053282;28;20039;-71
2023/06/16 00:55:16;;;;;;;4.15;3.30;;;16.60;47.80;;;;;;5053624;28;20021;-71
2023/06/16 00:57:42;;;;;;;4.85;3.78;;;16.50;48.30;;;;;;5035784;28;20109;-71
2023/06/16 01:00:11;;;;;;;5.85;3.78;;;16.40;48.50;;;;;;5053300;28;20058;-71
2023/06/16 01:02:37;;;;;;;5.18;3.95;;;16.40;48.80;;;;;;5053441;28;20028;-70
2023/06/16 01:05:02;;;;;;;6.75;3.85;;;16.20;49.10;;;;;;5053446;28;20025;-71
2023/06/16 01:07:46;;;;;;;7.68;4.40;;;16.00;49.50;;;;;;5053239;28;20023;-71
2023/06/16 01:10:32;;;;;;;4.95;4.13;;;15.90;50.20;;;;;;5053129;28;20060;-70
2023/06/16 01:13:10;;;;;;;4.40;4.00;;;15.80;50.30;;;;;;5053304;28;20021;-70
2023/06/16 01:15:39;;;;;;;4.30;3.90;;;15.70;51.00;;;;;;5053221;28;20444;-70
2023/06/16 01:18:07;;;;;;;4.93;4.00;;;15.70;51.10;;;;;;5052989;28;20024;-70
2023/06/16 01:20:51;;;;;;;4.40;4.00;;;15.70;51.20;;;;;;5053090;28;20025;-71
2023/06/16 01:23:50;;;;;;;5.00;4.43;;;15.70;51.50;;;;;;5053105;28;20056;-72
2023/06/16 01:26:17;;;;;;;4.32;3.60;;;15.70;51.50;;;;;;5053022;28;20025;-71
2023/06/16 01:28:45;;;;;;;5.65;3.58;;;15.70;51.30;;;;;;5052876;28;20086;-72
2023/06/16 01:31:15;;;;;;;4.43;3.80;;;15.80;51.30;;;;;;5052914;28;20079;-72
2023/06/16 01:33:42;;;;;;;4.05;3.53;;;15.80;51.30;;;;;;5052986;28;20107;-79
2023/06/16 01:36:08;;;;;;;5.35;4.28;;;15.70;51.10;;;;;;5052810;28;20083;-70
2023/06/16 01:38:35;;;;;;;7.60;4.07;;;15.70;51.40;;;;;;5052964;28;20437;-71
2023/06/16 01:41:02;;;;;;;6.03;4.20;;;15.70;51.40;;;;;;5052920;28;20111;-70
2023/06/16 01:43:28;;;;;;;6.75;4.60;;;15.70;51.50;;;;;;5035049;28;20021;-71
2023/06/16 01:45:56;;;;;;;6.80;4.82;;;15.70;51.50;;;;;;5052871;28;20025;-70
2023/06/16 01:48:23;;;;;;;5.32;4.82;;;15.50;51.80;;;;;;5052918;28;20021;-70
2023/06/16 01:50:49;;;;;;;5.75;4.82;;;15.30;52.70;;;;;;5052645;28;20581;-77
2023/06/16 01:53:15;;;;;;;6.55;4.45;;;15.20;52.90;;;;;;5052884;28;20039;-77
2023/06/16 01:55:46;;;;;;;4.85;4.30;;;15.10;53.70;;;;;;5052871;28;20517;-77
2023/06/16 01:58:12;;;;;;;6.85;4.53;;;15.10;54.00;;;;;;5052736;28;20036;-77
2023/06/16 02:00:49;;;;;;;7.20;4.95;;;15.00;54.40;;;;;;5052761;28;20021;-77
2023/06/16 02:03:42;;;;;;;5.40;4.90;;;15.00;54.60;;;;;;5053698;28;20389;-77
2023/06/16 02:06:15;;;;;;;5.03;4.53;;;15.00;54.80;;;;;;5042227;28;20037;-70
2023/06/16 02:08:43;;;;;;;5.25;4.60;;;14.90;55.00;;;;;;5056433;28;20044;-70
2023/06/16 02:11:09;;;;;;;5.00;4.53;;;15.00;54.90;;;;;;5056825;28;20036;-70
2023/06/16 02:13:35;;;;;;;5.85;4.45;;;15.00;55.00;;;;;;5056557;28;20143;-70
2023/06/16 02:16:01;;;;;;;6.43;4.70;;;15.10;54.80;;;;;;5056547;28;20485;-70
2023/06/16 02:18:27;;;;;;;5.60;5.10;;;15.20;54.60;;;;;;5056468;28;20025;-71
2023/06/16 02:20:54;;;;;;;4.63;4.20;;;15.20;54.60;;;;;;5056689;28;20111;-72
2023/06/16 02:23:20;;;;;;;4.88;4.25;;;15.30;54.50;;;;;;5056216;28;20021;-71
2023/06/16 02:25:46;;;;;;;6.43;4.70;;;15.50;54.30;;;;;;5028853;28;20136;-71
2023/06/16 02:28:12;;;;;;;6.07;4.72;;;15.40;54.60;;;;;;5036499;28;20373;-71
2023/06/16 02:30:38;;;;;;;6.53;4.50;;;15.40;54.20;;;;;;5036669;28;20116;-70
2023/06/16 02:33:04;;;;;;;5.38;4.88;;;15.50;54.30;;;;;;5038474;28;20022;-71
2023/06/16 02:35:29;;;;;;;4.53;4.13;;;15.50;54.20;;;;;;5036117;28;20029;-71
2023/06/16 02:37:55;;;;;;;5.85;4.75;;;15.50;54.20;;;;;;5036177;28;20102;-71
2023/06/16 02:40:20;;;;;;;5.43;4.55;;;15.50;54.20;;;;;;5036094;28;20029;-71
2023/06/16 02:42:48;;;;;;;5.00;4.60;;;15.60;54.20;;;;;;5018264;28;20412;-71
2023/06/16 02:45:14;;;;;;;5.68;4.88;;;15.60;54.00;;;;;;5036096;28;20032;-70
2023/06/16 02:47:40;;;;;;;5.55;5.05;;;15.60;54.10;;;;;;5036199;28;20424;-70
2023/06/16 02:50:07;;;;;;;5.93;4.60;;;15.50;54.00;;;;;;5035848;28;20099;-71
2023/06/16 02:52:33;;;;;;;6.18;4.72;;;15.40;54.40;;;;;;5036098;28;20026;-70
2023/06/16 02:54:59;;;;;;;7.82;4.68;;;15.40;54.60;;;;;;5035888;28;20036;-72
2023/06/16 02:57:25;;;;;;;6.20;5.20;;;15.30;54.90;;;;;;5018082;28;20406;-70
2023/06/16 02:59:50;;;;;;;5.28;4.57;;;15.30;55.10;;;;;;5035718;28;20376;-70
2023/06/16 03:02:16;;;;;;;6.45;4.88;;;15.30;55.30;;;;;;5035914;28;20076;-70
2023/06/16 03:04:42;;;;;;;4.93;4.43;;;15.30;55.30;;;;;;5035854;28;20080;-70
2023/06/16 03:07:08;;;;;;;7.70;5.25;;;15.40;55.20;;;;;;5035408;28;20014;-70
2023/06/16 03:09:33;;;;;;;6.10;5.03;;;15.40;56.20;;;;;;5035341;28;20549;-70
2023/06/16 03:12:00;;;;;;;11.13;5.10;;;15.30;55.60;;;;;;5035539;28;20025;-70
2023/06/16 03:14:26;;;;;;;6.10;5.22;;;15.30;55.70;;;;;;5017345;28;20640;-70
2023/06/16 03:16:51;;;;;;;5.78;5.10;;;15.30;55.80;;;;;;5035386;28;20022;-70
2023/06/16 03:19:21;;;;;;;5.90;5.30;;;15.30;56.00;;;;;;5035425;28;20112;-70
2023/06/16 03:21:48;;;;;;;7.25;5.35;;;15.30;56.00;;;;;;5035232;28;20107;-70
2023/06/16 03:24:16;;;;;;;5.80;4.90;;;15.30;56.20;;;;;;5035463;28;20104;-70
2023/06/16 03:26:43;;;;;;;6.40;5.13;;;15.30;56.30;;;;;;5035330;28;20079;-71
2023/06/16 03:29:09;;;;;;;6.65;5.40;;;15.20;56.10;;;;;;5035108;28;20363;-70
2023/06/16 03:31:34;;;;;;;6.22;5.30;;;15.20;56.30;;;;;;5035130;28;20390;-70
2023/06/16 03:34:00;;;;;;;11.48;5.70;;;15.10;56.40;;;;;;5035010;28;20021;-71
2023/06/16 03:36:27;;;;;;;5.75;5.20;;;15.00;56.60;;;;;;5035022;28;20036;-71
2023/06/16 03:38:52;;;;;;;7.55;6.07;;;15.00;56.80;;;;;;5034875;28;20381;-71
2023/06/16 03:41:18;;;;;;;6.20;5.35;;;15.00;56.90;;;;;;5034743;28;20025;-79
2023/06/16 03:43:44;;;;;;;7.18;5.72;;;15.00;56.80;;;;;;5034894;28;20029;-78
2023/06/16 03:46:09;;;;;;;6.45;5.07;;;15.00;56.90;;;;;;5034957;28;20071;-78
2023/06/16 03:48:35;;;;;;;11.73;5.40;;;15.00;56.80;;;;;;5034777;28;20112;-76
2023/06/16 03:51:01;;;;;;;8.90;5.32;;;15.10;56.60;;;;;;5034802;28;20029;-77
2023/06/16 03:53:27;;;;;;;6.25;5.63;;;15.10;56.70;;;;;;5016965;28;20109;-78
2023/06/16 03:55:52;;;;;;;6.43;5.38;;;15.10;56.90;;;;;;5034922;28;20025;-76
2023/06/16 03:58:18;;;;;;;8.10;6.15;;;15.10;57.30;;;;;;5034760;28;20071;-76
2023/06/16 04:00:44;;;;;;;6.50;5.30;;;14.90;57.70;;;;;;5034667;28;20091;-77
2023/06/16 04:03:11;;;;;;;7.88;5.55;;;14.90;58.20;;;;;;5034451;28;20021;-77
2023/06/16 04:05:37;;;;;;;6.80;6.07;;;14.80;58.50;;;;;;5034499;28;20079;-78
2023/06/16 04:08:03;;;;;;;7.75;5.63;;;14.90;58.60;;;;;;5013330;28;20045;-78
2023/06/16 04:10:29;;;;;;;6.57;5.40;;;14.90;58.10;;;;;;5014461;28;20041;-76
2023/06/16 04:12:54;;;;;;;8.68;5.95;;;15.00;57.70;;;;;;5013392;28;20491;-79
2023/06/16 04:15:20;;;;;;;6.47;5.82;;;15.10;57.30;;;;;;5014536;28;20542;-77
2023/06/16 04:17:46;;;;;;;7.32;5.15;;;15.10;57.30;;;;;;5014602;28;20033;-77
2023/06/16 04:20:12;;;;;;;8.98;5.60;;;15.20;57.00;;;;;;5014586;28;20388;-79
2023/06/16 04:22:38;;;;;;;7.40;5.22;;;15.30;57.00;;;;;;5014383;28;20026;-78
2023/06/16 04:25:05;;;;;;;7.65;5.63;;;15.50;56.80;;;;;;5014262;28;20026;-79
2023/06/16 04:27:32;;;;;;;6.82;5.32;;;15.60;56.30;;;;;;5013669;28;20109;-70
2023/06/16 04:29:57;;;;;;;10.38;5.78;;;15.70;56.00;;;;;;5014210;28;20037;-70
2023/06/16 04:32:23;;;;;;;6.13;4.72;;;15.90;55.50;;;;;;5014235;28;20026;-70
2023/06/16 04:34:49;;;;;;;10.15;5.85;;;16.00;56.00;;;;;;5014192;28;20045;-69
2023/06/16 04:37:16;;;;;;;6.13;5.28;;;16.00;54.80;;;;;;5014118;28;20033;-69
2023/06/16 04:39:42;;;;;;;6.32;5.40;;;16.10;54.50;;;;;;5014097;28;20137;-69
2023/06/16 04:42:09;;;;;;;9.15;5.63;;;16.20;54.50;;;;;;5013828;28;20486;-70
2023/06/16 04:44:35;;;;;;;6.95;5.93;;;16.20;54.50;;;;;;5012539;28;20092;-76
2023/06/16 04:47:01;;;;;;;7.28;5.65;;;16.20;54.90;;;;;;5013778;28;20026;-75
2023/06/16 04:49:27;;;;;;;6.88;6.05;;;16.30;55.10;;;;;;5013860;28;20067;-77
2023/06/16 04:51:53;;;;;;;7.35;5.05;;;16.40;55.00;;;;;;5013660;28;20421;-78
2023/06/16 04:54:19;;;;;;;5.90;5.35;;;16.50;54.70;;;;;;5013975;28;20026;-78
2023/06/16 04:56:45;;;;;;;5.90;4.57;;;16.70;54.30;;;;;;5013513;28;20056;-78
2023/06/16 04:59:11;;;;;;;9.27;5.82;;;16.90;54.00;;;;;;5012591;28;20025;-72
2023/06/16 05:01:37;;;;;;;7.13;5.38;;;17.00;53.30;;;;;;5013650;28;20033;-71
2023/06/16 05:04:02;;;;;;;9.57;6.55;;;17.10;53.00;;;;;;5013555;28;20031;-71
2023/06/16 05:06:28;;;;;;;10.38;5.65;;;17.10;53.10;;;;;;5013538;28;20037;-71
2023/06/16 05:08:54;;;;;;;9.60;5.68;;;17.10;52.80;;;;;;5026819;28;20037;-71
2023/06/16 05:11:20;;;;;;;11.70;6.10;;;17.20;52.20;;;;;;5033080;28;20087;-70
2023/06/16 05:13:45;;;;;;;8.40;5.63;;;17.20;52.60;;;;;;5033263;28;20033;-78
2023/06/16 05:16:11;;;;;;;8.25;5.38;;;17.10;52.70;;;;;;5033037;28;20028;-70
2023/06/16 05:18:37;;;;;;;10.40;5.70;;;16.90;53.00;;;;;;5032860;28;20029;-70
2023/06/16 05:21:02;;;;;;;11.88;6.18;;;16.90;53.00;;;;;;5032781;28;20032;-70
2023/06/16 05:23:28;;;;;;;7.13;5.43;;;16.90;53.30;;;;;;5032695;28;20424;-70
2023/06/16 05:25:53;;;;;;;7.55;5.35;;;16.90;53.30;;;;;;5032735;28;20056;-70
2023/06/16 05:28:19;;;;;;;7.70;5.35;;;17.10;53.20;;;;;;5043944;28;20064;-70
2023/06/16 05:30:45;;;;;;;10.18;5.78;;;17.20;53.00;;;;;;5051751;28;20068;-71
2023/06/16 05:33:10;;;;;;;10.15;5.30;;;17.30;53.10;;;;;;5052391;28;20022;-70
2023/06/16 05:35:37;;;;;;;5.97;5.15;;;17.50;52.60;;;;;;5052556;28;20115;-70
2023/06/16 05:38:02;;;;;;;8.60;5.90;;;17.50;52.40;;;;;;5052325;28;20017;-70
2023/06/16 05:40:28;;;;;;;12.93;5.90;;;17.60;52.00;;;;;;5052183;28;20108;-70
2023/06/16 05:42:53;;;;;;;5.50;4.95;;;17.70;51.90;;;;;;5052624;28;20354;-70
2023/06/16 05:45:19;;;;;;;11.35;5.15;;;17.80;51.90;;;;;;5052073;28;20029;-70
2023/06/16 05:47:45;;;;;;;9.32;5.25;;;17.80;51.80;;;;;;5052514;28;20045;-76
2023/06/16 05:50:10;;;;;;;5.82;4.90;;;18.00;51.40;;;;;;5052274;28;20528;-73
2023/06/16 05:52:37;;;;;;;6.68;5.00;;;18.10;51.00;;;;;;5052645;28;20432;-75
2023/06/16 05:55:03;;;;;;;8.00;5.68;;;18.20;50.40;;;;;;5052602;28;20385;-72
2023/06/16 05:57:29;;;;;;;8.35;5.18;;;18.30;50.10;;;;;;5052361;28;20036;-76
2023/06/16 05:59:55;;;;;;;6.22;4.82;;;18.40;50.00;;;;;;5052265;28;20021;-77
2023/06/16 06:02:21;;;;;;;9.25;5.95;;;18.50;49.70;;;;;;5052394;28;20424;-70
2023/06/16 06:04:47;;;;;;;7.45;5.15;;;18.50;49.70;;;;;;5052560;28;20112;-70
2023/06/16 06:07:13;;;;;;;8.68;5.05;;;18.50;49.50;;;;;;5051857;28;20158;-70
2023/06/16 06:09:38;;;;;;;8.40;4.88;;;18.60;49.20;;;;;;5057487;28;20048;-71
2023/06/16 06:12:04;;;;;;;4.47;4.03;;;18.80;49.00;;;;;;5052544;28;20025;-74
2023/06/16 06:14:30;;;;;;;5.30;4.80;;;18.90;48.60;;;;;;5052217;28;20094;-70
2023/06/16 06:16:55;;;;;;;7.57;4.82;;;19.00;47.90;;;;;;5052067;28;20043;-70
2023/06/16 06:19:23;;;;;;;6.82;4.65;;;19.20;47.70;;;;;;5052132;28;20021;-71
2023/06/16 06:21:48;;;;;;;6.00;4.43;;;19.40;47.40;;;;;;5052437;28;20021;-72
2023/06/16 06:24:14;;;;;;;9.57;5.15;;;19.60;47.20;;;;;;5052936;28;20091;-71
2023/06/16 06:26:40;;;;;;;7.57;4.80;;;19.70;47.10;;;;;;5052021;28;20025;-71
2023/06/16 06:29:06;;;;;;;13.65;5.60;;;19.80;46.90;;;;;;5052165;28;20032;-71
2023/06/16 06:31:32;;;;;;;15.85;5.13;;;19.90;46.30;;;;;;5052148;28;20051;-73
2023/06/16 06:33:58;;;;;;;13.45;4.63;;;20.00;45.40;;;;;;5034759;28;20071;-81
2023/06/16 06:36:28;;;;;;;9.32;4.40;;;20.20;45.90;;;;;;5034960;28;20025;-80
2023/06/16 06:38:54;;;;;;;6.88;4.53;;;20.30;44.90;;;;;;5052143;28;20025;-79
2023/06/16 06:41:22;;;;;;;4.75;4.35;;;20.50;43.60;;;;;;5034365;28;20025;-79
2023/06/16 06:43:47;;;;;;;10.23;4.68;;;20.70;43.50;;;;;;5052583;28;20052;-82
2023/06/16 06:46:13;;;;;;;4.97;4.47;;;20.90;42.70;;;;;;5034447;28;20060;-76
2023/06/16 06:48:38;;;;;;;16.75;3.58;;;21.10;42.00;;;;;;5051860;28;20025;-71
2023/06/16 06:51:04;;;;;;;6.05;4.20;;;21.20;41.80;;;;;;5056464;28;20025;-72
2023/06/16 06:53:31;;;;;;;18.98;5.43;;;21.40;41.50;;;;;;5055678;28;20025;-72
2023/06/16 06:55:57;;;;;;;6.95;4.50;;;21.50;40.90;;;;;;5056069;28;20036;-74
2023/06/16 06:58:22;;;;;;;9.98;5.15;;;21.60;40.80;;;;;;5037315;28;20025;-74
2023/06/16 07:00:48;;;;;;;6.25;4.63;;;21.60;40.80;;;;;;5055414;28;20037;-75
2023/06/16 07:03:13;;;;;;;7.57;4.63;;;21.70;40.70;;;;;;5055286;28;20458;-72
2023/06/16 07:05:40;;;;;;;6.90;4.43;;;21.80;40.20;;;;;;5055280;28;20412;-76
2023/06/16 07:08:05;;;;;;;10.73;5.45;;;21.90;39.60;;;;;;5055365;28;20049;-76
2023/06/16 07:10:32;;;;;;;4.80;4.30;;;21.70;40.70;;;;;;5055250;28;20049;-76
2023/06/16 07:12:58;;;;;;;6.05;4.22;;;21.70;40.50;;;;;;5055263;28;20545;-75
2023/06/16 07:15:23;;;;;;;7.70;5.10;;;21.90;40.10;;;;;;5055424;28;20415;-75
2023/06/16 07:17:49;;;;;;;7.10;5.05;;;22.10;39.90;;;;;;5055231;28;20050;-77
2023/06/16 07:20:15;;;;;;;6.75;4.68;;;22.20;39.90;;;;;;5055219;28;20025;-77
2023/06/16 07:22:42;;;;;;;8.48;4.95;;;22.30;39.70;;;;;;5037099;28;20048;-72
2023/06/16 07:25:08;;;;;;;6.28;5.43;;;22.40;39.30;;;;;;5054941;28;20386;-73
2023/06/16 07:27:33;;;;;;;6.40;4.80;;;22.20;39.60;;;;;;5054421;28;20025;-72
2023/06/16 07:29:59;;;;;;;4.85;4.15;;;22.30;39.80;;;;;;5054168;28;20033;-72
2023/06/16 07:32:25;;;;;;;6.15;4.95;;;22.50;39.60;;;;;;5054200;28;20028;-73
2023/06/16 07:34:52;;;;;;;5.93;4.68;;;22.60;38.70;;;;;;5054640;28;20037;-75
2023/06/16 07:37:17;;;;;;;6.65;4.72;;;22.70;37.10;;;;;;5054499;28;20013;-72
2023/06/16 07:39:43;;;;;;;6.50;4.35;;;22.60;36.90;;;;;;5054513;28;20028;-72
2023/06/16 07:42:09;;;;;;;7.70;4.60;;;22.60;37.20;;;;;;5054483;28;20021;-72
2023/06/16 07:44:34;;;;;;;5.78;3.95;;;22.40;37.50;;;;;;5054446;28;20025;-72
2023/06/16 07:47:00;;;;;;;6.00;4.30;;;22.30;38.00;;;;;;5054225;28;20024;-72
2023/06/16 07:49:26;;;;;;;6.72;4.63;;;22.50;37.40;;;;;;5054296;28;20039;-72
2023/06/16 07:51:52;;;;;;;10.10;4.97;;;22.70;36.60;;;;;;5054452;28;20036;-72
2023/06/16 07:54:17;;;;;;;4.47;3.97;;;22.70;36.40;;;;;;5054354;28;20075;-72
2023/06/16 07:56:43;;;;;;;5.25;4.13;;;22.60;36.40;;;;;;5054142;28;20059;-73
2023/06/16 07:59:08;;;;;;;6.72;4.13;;;22.80;36.10;;;;;;5036224;28;20033;-73
2023/06/16 08:01:34;;;;;;;5.95;4.18;;;22.80;35.80;;;;;;5036818;28;20053;-72
2023/06/16 08:04:00;;;;;;;4.38;3.42;;;23.00;35.60;;;;;;5031800;28;20033;-73
2023/06/16 08:06:27;;;;;;;5.93;4.22;;;23.30;35.10;;;;;;5013357;28;20076;-72
2023/06/16 08:08:53;;;;;;;7.60;4.15;;;23.40;35.30;;;;;;5033345;28;20049;-72
2023/06/16 08:11:19;;;;;;;3.92;3.30;;;23.60;33.90;;;;;;5033211;28;20393;-72
2023/06/16 08:13:45;;;;;;;8.60;4.22;;;23.80;33.10;;;;;;5034021;28;20390;-72
2023/06/16 08:16:11;;;;;;;5.50;4.07;;;24.00;32.40;;;;;;5033779;28;20120;-72
2023/06/16 08:18:38;;;;;;;9.23;4.10;;;24.00;31.10;;;;;;5033873;28;20100;-72
2023/06/16 08:21:04;;;;;;;8.38;3.95;;;24.00;30.10;;;;;;5033849;28;20351;-72
2023/06/16 08:23:29;;;;;;;6.63;3.88;;;23.90;29.70;;;;;;5033810;28;20097;-72
2023/06/16 08:25:55;;;;;;;6.13;4.38;;;23.90;29.50;;;;;;5033959;28;20021;-72
2023/06/16 08:28:21;;;;;;;4.13;3.38;;;23.90;29.70;;;;;;5033667;28;20052;-72
2023/06/16 08:30:46;;;;;;;5.93;4.20;;;24.00;29.80;;;;;;5033455;28;20129;-72
2023/06/16 08:33:12;;;;;;;6.80;4.00;;;24.00;29.60;;;;;;5033429;28;20429;-72
2023/06/16 08:35:37;;;;;;;12.10;4.32;;;23.90;30.00;;;;;;5033526;28;20028;-72
2023/06/16 08:38:03;;;;;;;5.97;3.92;;;23.70;29.50;;;;;;5033422;28;20021;-72
2023/06/16 08:40:28;;;;;;;4.97;4.20;;;23.50;30.20;;;;;;5033239;28;20041;-73
2023/06/16 08:42:55;;;;;;;4.90;3.97;;;23.50;30.80;;;;;;5033219;28;20022;-72
2023/06/16 08:45:22;;;;;;;4.85;3.92;;;23.40;30.90;;;;;;5040815;28;20021;-72
2023/06/16 08:47:48;;;;;;;12.25;3.80;;;23.40;31.60;;;;;;5053271;28;20031;-72
2023/06/16 08:50:14;;;;;;;6.90;4.10;;;23.50;31.00;;;;;;5052952;28;20041;-72
2023/06/16 08:52:41;;;;;;;5.35;3.83;;;23.60;30.30;;;;;;5053116;28;20468;-73
2023/06/16 08:55:10;;;;;;;6.55;3.60;;;23.80;29.40;;;;;;5052681;28;20061;-73
2023/06/16 08:57:44;;;;;;;4.38;3.63;;;24.00;29.20;;;;;;5053184;28;20086;-72
2023/06/16 09:00:10;;;;;;;5.93;4.07;;;24.20;28.90;;;;;;5052844;28;20029;-72
2023/06/16 09:02:37;;;;;;;8.05;3.80;;;24.50;28.60;;;;;;5034683;28;20079;-73
2023/06/16 09:05:04;;;;;;;8.48;4.25;;;24.60;26.50;;;;;;5052710;28;20024;-72
2023/06/16 09:07:30;;;;;;;6.35;3.72;;;24.60;25.90;;;;;;5052703;28;20028;-72
2023/06/16 09:09:55;;;;;;;6.57;4.00;;;24.80;27.00;;;;;;5052939;28;20029;-72
2023/06/16 09:12:21;;;;;;;5.82;3.88;;;24.80;25.90;;;;;;5052085;28;20044;-72
2023/06/16 09:14:49;;;;;;;10.30;4.53;;;24.80;24.90;;;;;;5052825;28;20041;-72
2023/06/16 09:17:21;;;;;;;5.38;4.00;;;24.60;24.10;;;;;;5052613;28;20022;-72
2023/06/16 09:19:47;;;;;;;6.05;4.20;;;24.20;25.30;;;;;;5053060;28;20044;-72
2023/06/16 09:22:23;;;;;;;6.43;3.90;;;23.80;25.70;;;;;;5052749;28;20392;-73
2023/06/16 09:24:57;;;;;;;5.47;3.80;;;23.70;26.60;;;;;;5052724;28;20021;-72
2023/06/16 09:27:40;;;;;;;7.30;4.30;;;23.70;26.90;;;;;;5052411;28;20100;-72
2023/06/16 09:30:06;;;;;;;6.75;3.53;;;23.40;26.60;;;;;;5052887;28;20103;-72
2023/06/16 09:32:38;;;;;;;5.88;3.92;;;23.30;27.50;;;;;;5052666;28;20025;-72
2023/06/16 09:35:23;;;;;;;7.93;3.80;;;23.20;27.40;;;;;;5052485;28;20021;-71
2023/06/16 09:37:53;;;;;;;9.18;4.05;;;23.20;27.80;;;;;;5052769;28;20505;-71
2023/06/16 09:40:20;;;;;;;6.30;4.25;;;23.20;28.30;;;;;;5052456;28;20406;-71
2023/06/16 09:42:48;;;;;;;7.53;4.25;;;23.20;28.60;;;;;;5052630;28;20108;-71
2023/06/16 09:45:15;;;;;;;5.10;3.95;;;23.10;28.10;;;;;;5052614;28;20032;-71
2023/06/16 09:47:45;;;;;;;5.63;4.00;;;23.10;28.30;;;;;;5052528;28;20021;-71
2023/06/16 09:50:19;;;;;;;6.40;4.45;;;23.10;27.50;;;;;;5052511;28;20033;-71
2023/06/16 09:52:46;;;;;;;6.00;4.50;;;23.00;26.50;;;;;;5052690;28;20044;-74
2023/06/16 09:55:12;;;;;;;8.80;4.70;;;23.00;25.90;;;;;;5052204;28;20075;-74
2023/06/16 09:57:40;;;;;;;12.88;4.60;;;22.90;26.30;;;;;;5052109;28;20052;-74
2023/06/16 10:00:25;;;;;;;6.38;4.20;;;22.90;25.80;;;;;;5057269;28;20517;-73
2023/06/16 10:02:51;;;;;;;9.73;4.72;;;22.80;25.20;;;;;;5052442;28;20534;-73
2023/06/16 10:05:22;;;;;;;6.63;4.30;;;22.60;26.30;;;;;;5052055;28;20029;-74
2023/06/16 10:07:53;;;;;;;8.40;4.30;;;22.60;27.30;;;;;;5051948;28;20130;-73
2023/06/16 10:10:23;;;;;;;6.38;4.07;;;22.60;27.00;;;;;;5051755;28;20033;-73
2023/06/16 10:12:50;;;;;;;8.68;4.40;;;22.60;25.90;;;;;;5033190;28;20586;-74
2023/06/16 10:15:20;;;;;;;8.05;4.20;;;22.70;27.30;;;;;;5051814;28;20543;-75
2023/06/16 10:17:48;;;;;;;7.05;4.40;;;22.80;27.00;;;;;;5051792;28;20032;-73
2023/06/16 10:20:17;;;;;;;7.68;4.78;;;22.90;27.00;;;;;;5051548;28;20108;-73
2023/06/16 10:22:43;;;;;;;7.30;4.47;;;22.90;27.20;;;;;;5052167;28;20057;-71
2023/06/16 10:25:09;;;;;;;8.77;4.50;;;22.90;27.60;;;;;;5054480;28;20082;-72
2023/06/16 10:27:35;;;;;;;9.73;3.85;;;22.90;27.90;;;;;;5037911;28;20025;-72
2023/06/16 10:30:02;;;;;;;4.70;3.90;;;22.90;28.10;;;;;;5055277;28;20036;-72
2023/06/16 10:32:28;;;;;;;7.70;5.20;;;23.00;27.00;;;;;;5055757;28;20377;-71
2023/06/16 10:34:56;;;;;;;7.75;3.97;;;23.10;27.70;;;;;;5055218;28;20021;-71
2023/06/16 10:37:27;;;;;;;10.18;4.40;;;23.10;28.50;;;;;;5055471;28;20359;-72
2023/06/16 10:39:57;;;;;;;5.38;4.10;;;23.30;28.10;;;;;;5055826;28;20025;-72
2023/06/16 10:42:23;;;;;;;7.60;3.95;;;23.40;28.60;;;;;;5055707;28;20527;-72
2023/06/16 10:44:50;;;;;;;7.70;4.10;;;23.70;28.50;;;;;;5055696;28;20037;-73
2023/06/16 10:47:15;;;;;;;10.68;4.28;;;24.10;28.20;;;;;;5038289;28;20068;-71
2023/06/16 10:49:44;;;;;;;9.68;4.22;;;24.50;27.80;;;;;;5035442;28;20446;-71
2023/06/16 10:52:15;;;;;;;6.75;3.53;;;24.90;26.90;;;;;;5035289;28;20323;-71
2023/06/16 10:54:48;;;;;;;6.35;3.95;;;25.30;26.10;;;;;;5035218;28;20040;-72
2023/06/16 10:57:14;;;;;;;9.48;4.03;;;25.50;24.50;;;;;;5034945;28;20505;-73
2023/06/16 11:00:23;;;;;;;4.38;3.72;;;25.50;23.80;;;;;;5035285;28;20483;-72
2023/06/16 11:02:52;;;;;;;4.90;3.40;;;25.70;24.30;;;;;;5017743;28;20022;-71
2023/06/16 11:05:22;;;;;;;5.05;3.60;;;26.10;23.80;;;;;;5017555;28;20022;-72
2023/06/16 11:07:58;;;;;;;5.13;4.38;;;26.30;22.50;;;;;;5034950;28;20060;-72
2023/06/16 11:10:24;;;;;;;5.85;3.85;;;26.70;22.20;;;;;;5035100;28;20477;-72
2023/06/16 11:12:50;;;;;;;5.60;3.75;;;26.90;22.20;;;;;;5035464;28;20057;-72
2023/06/16 11:15:16;;;;;;;4.68;3.45;;;27.10;21.30;;;;;;5035199;28;20044;-71
2023/06/16 11:17:47;;;;;;;5.78;4.00;;;27.30;21.80;;;;;;5035048;28;20117;-72
2023/06/16 11:20:13;;;;;;;9.27;3.35;;;27.40;21.30;;;;;;5035258;28;20029;-71
2023/06/16 11:22:39;;;;;;;6.18;3.33;;;27.50;20.50;;;;;;5035027;28;20067;-73
2023/06/16 11:25:06;;;;;;;5.40;3.70;;;27.50;20.90;;;;;;5035069;28;20065;-72
2023/06/16 11:27:32;;;;;;;7.40;3.47;;;27.50;21.50;;;;;;5034979;28;20017;-72
2023/06/16 11:30:00;;;;;;;6.22;3.78;;;27.50;20.60;;;;;;5034839;28;20038;-72
2023/06/16 11:32:28;;;;;;;8.82;3.85;;;27.60;20.30;;;;;;5034928;28;20108;-71
2023/06/16 11:34:55;;;;;;;4.55;2.97;;;27.20;20.60;;;;;;5034663;28;20090;-71
2023/06/16 11:37:37;;;;;;;5.32;3.58;;;26.50;21.30;;;;;;5034683;28;20021;-73
2023/06/16 11:40:05;;;;;;;5.20;3.33;;;26.00;22.20;;;;;;5034802;28;20030;-73
2023/06/16 11:42:32;;;;;;;5.97;3.67;;;25.70;23.10;;;;;;5016844;28;20075;-72
2023/06/16 11:44:58;;;;;;;5.13;3.70;;;25.50;23.70;;;;;;5017333;28;20171;-76
2023/06/16 11:47:24;;;;;;;4.80;4.07;;;25.50;23.60;;;;;;5017207;28;20109;-72
2023/06/16 11:49:51;;;;;;;6.93;3.85;;;25.70;23.10;;;;;;5034563;28;20048;-72
2023/06/16 11:52:18;;;;;;;7.75;3.78;;;26.00;22.90;;;;;;5034718;28;20036;-73
2023/06/16 11:54:43;;;;;;;6.95;3.70;;;26.00;22.80;;;;;;5034325;28;20099;-72
2023/06/16 11:57:09;;;;;;;8.40;4.13;;;26.00;22.40;;;;;;5034291;28;20068;-72
2023/06/16 11:59:35;;;;;;;6.10;3.83;;;26.20;21.10;;;;;;5034395;28;20017;-71
2023/06/16 12:02:03;;;;;;;8.07;3.30;;;26.20;21.00;;;;;;5034042;28;20486;-71
2023/06/16 12:04:29;;;;;;;9.90;4.05;;;26.60;20.10;;;;;;5034227;28;20101;-71
2023/06/16 12:06:56;;;;;;;5.63;4.00;;;26.90;20.00;;;;;;5034209;28;20029;-73
2023/06/16 12:09:22;;;;;;;6.72;3.53;;;27.30;19.40;;;;;;5033982;28;20041;-71
2023/06/16 12:11:48;;;;;;;8.48;3.85;;;27.30;18.40;;;;;;5034291;28;20033;-72
2023/06/16 12:14:21;;;;;;;6.13;4.30;;;27.50;18.30;;;;;;5034650;28;20021;-72
2023/06/16 12:16:48;;;;;;;7.68;4.45;;;27.50;19.00;;;;;;5034319;28;20363;-71
2023/06/16 12:19:22;;;;;;;9.60;4.63;;;27.60;18.40;;;;;;5033964;28;20025;-71
2023/06/16 12:21:53;;;;;;;7.07;4.53;;;27.40;17.00;;;;;;5015866;28;20033;-72
2023/06/16 12:24:22;;;;;;;8.05;3.85;;;26.60;17.80;;;;;;5033902;28;20029;-72
2023/06/16 12:26:51;;;;;;;5.00;4.07;;;26.10;18.40;;;;;;5033955;28;20079;-72
2023/06/16 12:29:19;;;;;;;6.35;4.35;;;26.40;19.10;;;;;;5033996;28;20037;-71
2023/06/16 12:31:56;;;;;;;9.85;4.32;;;26.70;18.50;;;;;;5034039;28;20029;-72
2023/06/16 12:34:33;;;;;;;7.60;4.63;;;26.70;18.20;;;;;;5033732;28;20025;-72
2023/06/16 12:37:13;;;;;;;7.28;3.92;;;26.80;17.80;;;;;;5015654;28;20029;-71
2023/06/16 12:39:43;;;;;;;8.68;3.75;;;26.60;18.20;;;;;;5033166;28;20032;-72
2023/06/16 12:42:11;;;;;;;7.65;4.28;;;26.70;18.20;;;;;;5033517;28;20100;-72
2023/06/16 12:44:50;;;;;;;12.05;4.25;;;26.80;18.40;;;;;;5033911;28;20091;-72
2023/06/16 12:47:20;;;;;;;4.93;3.78;;;27.10;18.60;;;;;;5032715;28;20057;-73